Time;durP1;ratioP1;P1;durP2;ratioP2;P2;SDS_P1;SDS_P2;PMS_P1;PMS_P2;Temp;Humidity;BMP_temperature;BMP_pressure;BME280_temperature;BME280_humidity;BME280_pressure;Samples;Min_cycle;Max_cycle;Signal;HPM_P1;HPM_P2
2022/08/31 00:05:00;;;;;;;;;;;;;;;22.91;52.30;102212.59;7283458;19;152153;-61
2022/08/31 00:07:30;;;;;;;;;;;;;;;22.91;52.35;102212.59;7295241;19;152244;-61
2022/08/31 00:09:57;;;;;;;;;;;;;;;22.88;52.61;102211.22;7284358;19;154248;-61
2022/08/31 00:12:24;;;;;;;;;;;;;;;22.97;52.60;102217.06;7287598;19;153227;-61
2022/08/31 00:14:54;;;;;;;;;;;;;;;22.97;52.16;102212.25;7283985;19;153372;-60
2022/08/31 00:17:28;;;;;;;;;;;;;;;22.95;52.26;102213.66;7288104;19;153112;-60
2022/08/31 00:20:05;;;;;;;;;;;;;;;22.94;52.31;102212.81;7281505;19;152153;-60
2022/08/31 00:22:57;;;;;;;;;;;;;;;22.95;52.47;102222.13;7285860;19;154961;-60
2022/08/31 00:25:25;;;;;;;;;;;;;;;22.91;52.72;102204.13;7283136;19;152688;-61
2022/08/31 00:27:54;;;;;;;;;;;;;;;22.95;52.34;102206.06;7288284;19;152926;-61
2022/08/31 00:30:25;;;;;;;;;;;;;;;22.95;52.64;102210.84;7290103;19;153260;-61
2022/08/31 00:33:00;;;;;;;;;;;;;;;22.89;52.64;102203.59;7287728;19;153468;-61
2022/08/31 00:35:32;;;;;;;;;;;;;;;22.90;53.05;102202.44;7282939;19;153010;-61
2022/08/31 00:37:59;;;;;;;;;;;;;;;22.87;52.71;102205.84;7284477;19;152197;-60
2022/08/31 00:40:29;;;;;;;;;;;;;;;22.85;52.70;102206.13;7285029;19;152032;-61
2022/08/31 00:43:11;;;;;;;;;;;;;;;22.88;52.54;102208.38;7283866;19;152223;-60
2022/08/31 00:45:38;;;;;;;;;;;;;;;22.85;52.75;102205.31;7283533;19;152379;-61
2022/08/31 00:48:20;;;;;;;;;;;;;;;22.85;52.55;102208.13;7285986;19;152413;-61
2022/08/31 00:50:49;;;;;;;;;;;;;;;22.83;52.59;102197.16;7280627;19;153314;-60
2022/08/31 00:53:16;;;;;;;;;;;;;;;22.84;52.83;102207.28;7289564;19;151980;-61
2022/08/31 00:55:45;;;;;;;;;;;;;;;22.85;52.55;102202.50;7283362;19;153374;-60
2022/08/31 00:58:16;;;;;;;;;;;;;;;22.88;52.52;102201.91;7285235;19;152925;-61
2022/08/31 01:00:43;;;;;;;;;;;;;;;22.84;52.87;102207.28;7285481;19;152554;-61
2022/08/31 01:03:11;;;;;;;;;;;;;;;22.83;52.64;102201.94;7282336;19;154224;-61
2022/08/31 01:05:38;;;;;;;;;;;;;;;22.83;52.59;102205.59;7280200;19;153643;-60
2022/08/31 01:08:06;;;;;;;;;;;;;;;22.81;52.98;102207.00;7285913;19;153305;-61
2022/08/31 01:10:38;;;;;;;;;;;;;;;22.82;52.76;102205.88;7282064;19;154246;-61
2022/08/31 01:13:13;;;;;;;;;;;;;;;22.79;52.75;102195.22;7285016;19;155099;-61
2022/08/31 01:15:47;;;;;;;;;;;;;;;22.81;52.66;102204.19;7291215;19;152491;-61
2022/08/31 01:18:19;;;;;;;;;;;;;;;22.77;52.81;102197.47;7285523;19;153640;-61
2022/08/31 01:20:56;;;;;;;;;;;;;;;22.75;52.90;102196.94;7280972;19;152806;-61
2022/08/31 01:23:43;;;;;;;;;;;;;;;22.75;52.65;102194.13;7278215;19;153231;-60
2022/08/31 01:26:17;;;;;;;;;;;;;;;22.73;52.53;102197.22;7283733;19;152590;-61
2022/08/31 01:28:45;;;;;;;;;;;;;;;22.74;52.41;102206.53;7284531;19;152738;-61
2022/08/31 01:31:21;;;;;;;;;;;;;;;22.73;52.64;102200.03;7282586;19;153900;-61
2022/08/31 01:33:50;;;;;;;;;;;;;;;22.74;52.70;102198.06;7281222;19;152578;-61
2022/08/31 01:36:20;;;;;;;;;;;;;;;22.71;52.75;102198.66;7288006;19;153216;-61
2022/08/31 01:38:49;;;;;;;;;;;;;;;22.74;52.43;102203.69;7282490;19;152257;-60
2022/08/31 01:41:19;;;;;;;;;;;;;;;22.72;52.21;102205.97;7283561;19;154057;-61
2022/08/31 01:43:45;;;;;;;;;;;;;;;22.76;52.27;102201.44;7282963;19;153849;-60
2022/08/31 01:46:14;;;;;;;;;;;;;;;22.74;52.17;102203.69;7283689;19;152715;-61
2022/08/31 01:48:45;;;;;;;;;;;;;;;22.72;52.17;102205.97;7284146;19;153255;-61
2022/08/31 01:51:14;;;;;;;;;;;;;;;22.72;52.10;102203.13;7279319;19;154394;-61
2022/08/31 01:53:46;;;;;;;;;;;;;;;22.69;52.12;102207.38;7280057;19;152379;-61
2022/08/31 01:56:15;;;;;;;;;;;;;;;22.70;52.41;102206.28;7282888;19;152011;-61
2022/08/31 01:58:43;;;;;;;;;;;;;;;22.70;52.03;102197.81;7289393;19;154098;-60
2022/08/31 02:01:17;;;;;;;;;;;;;;;22.63;52.51;102205.72;7284947;19;153792;-61
2022/08/31 02:04:01;;;;;;;;;;;;;;;22.66;51.97;102205.16;7277964;19;152330;-61
2022/08/31 02:06:31;;;;;;;;;;;;;;;22.65;52.01;102200.63;7280471;19;153519;-60
2022/08/31 02:09:03;;;;;;;;;;;;;;;22.66;52.18;102195.84;7283676;19;153029;-61
2022/08/31 02:11:30;;;;;;;;;;;;;;;22.63;52.14;102195.28;7280237;19;156552;-61
2022/08/31 02:14:00;;;;;;;;;;;;;;;22.60;52.07;102192.22;7283442;19;152314;-61
2022/08/31 02:16:36;;;;;;;;;;;;;;;22.64;51.63;102190.50;7284001;19;152454;-61
2022/08/31 02:19:11;;;;;;;;;;;;;;;22.61;51.91;102199.53;7278046;19;152941;-60
2022/08/31 02:21:40;;;;;;;;;;;;;;;22.62;51.87;102202.03;7290947;19;152144;-61
2022/08/31 02:24:07;;;;;;;;;;;;;;;22.60;51.50;102201.50;7281721;19;153086;-60
2022/08/31 02:26:34;;;;;;;;;;;;;;;22.59;51.65;102190.53;7282150;19;152320;-60
2022/08/31 02:29:20;;;;;;;;;;;;;;;22.57;51.89;102199.28;7282722;19;152305;-61
2022/08/31 02:31:58;;;;;;;;;;;;;;;22.59;51.71;102197.00;7282098;19;153098;-60
2022/08/31 02:34:26;;;;;;;;;;;;;;;22.58;51.52;102194.47;7277123;19;152353;-60
2022/08/31 02:36:53;;;;;;;;;;;;;;;22.58;51.38;102197.28;7284340;19;152668;-61
2022/08/31 02:39:23;;;;;;;;;;;;;;;22.59;51.40;102199.81;7281788;19;154206;-60
2022/08/31 02:41:54;;;;;;;;;;;;;;;22.60;51.42;102198.69;7281988;19;152766;-61
2022/08/31 02:44:22;;;;;;;;;;;;;;;22.54;51.17;102194.22;7288442;19;152384;-61
2022/08/31 02:47:00;;;;;;;;;;;;;;;22.58;51.28;102192.50;7280990;19;152732;-61
2022/08/31 02:49:27;;;;;;;;;;;;;;;22.60;51.11;102195.88;7279749;19;152775;-61
2022/08/31 02:51:53;;;;;;;;;;;;;;;22.55;51.32;102193.09;7282079;19;154511;-61
2022/08/31 02:54:21;;;;;;;;;;;;;;;22.58;50.85;102186.84;7277638;19;152253;-60
2022/08/31 02:56:49;;;;;;;;;;;;;;;22.54;51.39;102182.94;7283519;19;152744;-61
2022/08/31 02:59:19;;;;;;;;;;;;;;;22.53;51.33;102180.44;7280992;19;152849;-61
2022/08/31 03:01:46;;;;;;;;;;;;;;;22.52;51.60;102179.59;7282566;19;152768;-61
2022/08/31 03:04:16;;;;;;;;;;;;;;;22.53;51.00;102181.25;7277039;19;154257;-61
2022/08/31 03:06:58;;;;;;;;;;;;;;;22.52;51.42;102179.59;7288359;19;152489;-61
2022/08/31 03:09:27;;;;;;;;;;;;;;;22.54;51.17;102171.69;7281765;19;152958;-60
2022/08/31 03:11:55;;;;;;;;;;;;;;;22.52;51.04;102173.97;7281429;19;153315;-61
2022/08/31 03:14:26;;;;;;;;;;;;;;;22.49;51.37;102174.53;7280580;19;152547;-60
2022/08/31 03:16:53;;;;;;;;;;;;;;;22.49;51.14;102176.50;7282121;19;153508;-61
2022/08/31 03:19:23;;;;;;;;;;;;;;;22.47;51.21;102182.44;7277598;19;153868;-61
2022/08/31 03:21:50;;;;;;;;;;;;;;;22.44;51.22;102174.56;7281699;19;153014;-60
2022/08/31 03:24:22;;;;;;;;;;;;;;;22.49;51.00;102174.53;7282170;19;154268;-61
2022/08/31 03:26:55;;;;;;;;;;;;;;;22.52;50.52;102181.56;7281176;19;153751;-61
2022/08/31 03:29:31;;;;;;;;;;;;;;;22.47;50.83;102168.38;7286758;19;153352;-62
2022/08/31 03:32:08;;;;;;;;;;;;;;;22.48;50.93;102178.50;7281523;19;152605;-61
2022/08/31 03:34:39;;;;;;;;;;;;;;;22.44;50.77;102174.56;7278366;19;152127;-61
2022/08/31 03:37:06;;;;;;;;;;;;;;;22.42;51.18;102176.00;7281839;19;153286;-60
2022/08/31 03:39:33;;;;;;;;;;;;;;;22.42;51.16;102176.84;7279528;19;154006;-61
2022/08/31 03:42:00;;;;;;;;;;;;;;;22.43;51.03;102170.09;7281887;19;152962;-61
2022/08/31 03:44:31;;;;;;;;;;;;;;;22.42;50.74;102170.38;7280502;19;153550;-60
2022/08/31 03:47:01;;;;;;;;;;;;;;;22.39;51.46;102170.97;7279719;19;155481;-61
2022/08/31 03:49:29;;;;;;;;;;;;;;;22.39;51.07;102177.44;7284707;19;152960;-62
2022/08/31 03:51:57;;;;;;;;;;;;;;;22.40;51.32;102176.28;7280658;19;154233;-61
2022/08/31 03:54:27;;;;;;;;;;;;;;;22.42;50.96;102171.22;7277261;19;152290;-61
2022/08/31 03:57:02;;;;;;;;;;;;;;;22.40;51.07;102167.84;7277746;19;152339;-61
2022/08/31 03:59:32;;;;;;;;;;;;;;;22.41;50.81;102169.53;7279326;19;153201;-62
2022/08/31 04:02:00;;;;;;;;;;;;;;;22.35;50.88;102167.84;7279158;19;152112;-61
2022/08/31 04:04:29;;;;;;;;;;;;;;;22.39;50.85;102168.16;7274664;19;153230;-61
2022/08/31 04:07:06;;;;;;;;;;;;;;;22.36;51.06;102172.38;7278262;19;154031;-61
2022/08/31 04:09:44;;;;;;;;;;;;;;;22.34;50.85;102169.03;7275989;19;153528;-61
2022/08/31 04:12:13;;;;;;;;;;;;;;;22.36;50.84;102168.72;7287030;19;153682;-60
2022/08/31 04:14:41;;;;;;;;;;;;;;;22.35;50.56;102165.03;7271401;19;153219;-60
2022/08/31 04:17:09;;;;;;;;;;;;;;;22.38;50.78;102166.47;7281112;19;152609;-61
2022/08/31 04:19:40;;;;;;;;;;;;;;;22.35;50.66;102161.41;7274285;19;153301;-60
2022/08/31 04:22:12;;;;;;;;;;;;;;;22.33;50.74;102167.31;7281186;19;153732;-60
2022/08/31 04:24:45;;;;;;;;;;;;;;;22.33;50.95;102167.31;7277967;19;152120;-61
2022/08/31 04:27:14;;;;;;;;;;;;;;;22.36;50.36;102172.38;7279251;19;154407;-61
2022/08/31 04:29:42;;;;;;;;;;;;;;;22.33;50.58;102164.50;7278632;19;153490;-61
2022/08/31 04:32:10;;;;;;;;;;;;;;;22.33;50.88;102166.47;7280242;19;153646;-61
2022/08/31 04:34:48;;;;;;;;;;;;;;;22.31;50.52;102172.41;7282005;19;154174;-61
2022/08/31 04:37:28;;;;;;;;;;;;;;;22.26;50.85;102163.97;7279779;19;152214;-61
2022/08/31 04:39:56;;;;;;;;;;;;;;;22.30;50.34;102167.06;7277804;19;154221;-61
2022/08/31 04:42:29;;;;;;;;;;;;;;;22.29;50.63;102173.84;7286645;19;152471;-61
2022/08/31 04:45:01;;;;;;;;;;;;;;;22.32;50.18;102164.78;7283130;19;152760;-61
2022/08/31 04:47:30;;;;;;;;;;;;;;;22.26;50.81;102168.78;7284679;19;153694;-60
2022/08/31 04:50:01;;;;;;;;;;;;;;;22.31;50.76;102174.38;7281768;19;152391;-61
2022/08/31 04:52:31;;;;;;;;;;;;;;;22.28;50.55;102173.00;7287484;19;152686;-60
2022/08/31 04:54:58;;;;;;;;;;;;;;;22.24;50.60;102171.03;7280604;19;154572;-61
2022/08/31 04:57:32;;;;;;;;;;;;;;;22.22;50.72;102168.50;7292743;19;152547;-61
2022/08/31 05:00:00;;;;;;;;;;;;;;;22.25;50.64;102173.59;7283293;19;152899;-61
2022/08/31 05:02:30;;;;;;;;;;;;;;;22.19;50.62;102171.91;7286009;19;152271;-61
2022/08/31 05:04:59;;;;;;;;;;;;;;;22.26;50.18;102177.25;7282605;19;153167;-60
2022/08/31 05:07:32;;;;;;;;;;;;;;;22.24;50.52;102183.16;7284981;19;154500;-62
2022/08/31 05:10:01;;;;;;;;;;;;;;;22.24;50.62;102177.53;7284754;19;152584;-61
2022/08/31 05:12:34;;;;;;;;;;;;;;;22.26;50.61;102180.06;7284772;19;153137;-61
2022/08/31 05:15:01;;;;;;;;;;;;;;;22.21;50.77;102188.53;7282883;19;153753;-60
2022/08/31 05:17:28;;;;;;;;;;;;;;;22.22;50.89;102179.78;7286149;19;152826;-61
2022/08/31 05:19:58;;;;;;;;;;;;;;;22.18;50.78;102179.50;7288904;19;152935;-61
2022/08/31 05:22:38;;;;;;;;;;;;;;;22.21;50.51;102182.91;7285679;19;152490;-61
2022/08/31 05:25:08;;;;;;;;;;;;;;;22.18;50.85;102179.50;7282407;19;152977;-60
2022/08/31 05:27:42;;;;;;;;;;;;;;;22.25;50.21;102179.22;7284665;19;152548;-61
2022/08/31 05:30:10;;;;;;;;;;;;;;;22.18;50.88;102170.22;7284809;19;152696;-61
2022/08/31 05:32:36;;;;;;;;;;;;;;;22.18;50.65;102170.22;7281358;19;153604;-61
2022/08/31 05:35:07;;;;;;;;;;;;;;;22.17;50.49;102168.53;7279976;19;153381;-61
2022/08/31 05:37:38;;;;;;;;;;;;;;;22.19;50.68;102174.72;7285537;19;153130;-61
2022/08/31 05:40:07;;;;;;;;;;;;;;;22.23;50.56;102172.16;7279701;19;153135;-61
2022/08/31 05:42:34;;;;;;;;;;;;;;;22.21;50.32;102172.47;7291245;19;153115;-60
2022/08/31 05:45:01;;;;;;;;;;;;;;;22.22;50.47;102167.66;7282537;19;152567;-61
2022/08/31 05:47:29;;;;;;;;;;;;;;;22.23;50.54;102170.19;7283761;19;153493;-61
2022/08/31 05:49:56;;;;;;;;;;;;;;;22.18;50.48;102168.25;7279532;19;152490;-60
2022/08/31 05:52:22;;;;;;;;;;;;;;;22.16;50.86;102172.50;7283848;19;153675;-60
2022/08/31 05:54:50;;;;;;;;;;;;;;;22.19;50.79;102163.47;7279605;19;153949;-60
2022/08/31 05:57:17;;;;;;;;;;;;;;;22.33;50.07;102174.94;7279858;19;153471;-61
2022/08/31 05:59:51;;;;;;;;;;;;;;;22.17;50.78;102172.19;7282098;19;153427;-61
2022/08/31 06:02:26;;;;;;;;;;;;;;;22.17;50.62;102163.75;7289058;19;152870;-60
2022/08/31 06:04:56;;;;;;;;;;;;;;;22.16;50.72;102164.91;7279840;19;152609;-61
2022/08/31 06:07:22;;;;;;;;;;;;;;;22.24;50.73;102165.41;7283503;19;154484;-61
2022/08/31 06:09:50;;;;;;;;;;;;;;;22.16;50.47;102161.25;7284191;19;154819;-61
2022/08/31 06:12:24;;;;;;;;;;;;;;;22.13;50.67;102165.47;7284646;19;152344;-61
2022/08/31 06:14:54;;;;;;;;;;;;;;;22.13;50.72;102170.25;7281749;19;153136;-61
2022/08/31 06:17:25;;;;;;;;;;;;;;;22.13;50.86;102167.44;7285169;19;152696;-61
2022/08/31 06:19:52;;;;;;;;;;;;;;;22.09;50.82;102160.69;7279275;19;153422;-61
2022/08/31 06:22:18;;;;;;;;;;;;;;;22.18;50.82;102162.63;7283501;19;152600;-61
2022/08/31 06:24:46;;;;;;;;;;;;;;;22.15;50.81;102165.19;7288229;19;154288;-60
2022/08/31 06:27:13;;;;;;;;;;;;;;;22.16;51.03;102169.69;7281151;19;153433;-61
2022/08/31 06:29:40;;;;;;;;;;;;;;;22.15;51.10;102160.41;7282123;19;152426;-61
2022/08/31 06:32:09;;;;;;;;;;;;;;;22.15;50.77;102165.19;7279973;19;153016;-61
2022/08/31 06:34:37;;;;;;;;;;;;;;;22.13;50.72;102159.84;7278087;19;153558;-60
2022/08/31 06:37:06;;;;;;;;;;;;;;;22.09;51.20;102163.50;7281624;19;152151;-61
2022/08/31 06:39:47;;;;;;;;;;;;;;;22.15;51.01;102165.19;7280734;19;152542;-61
2022/08/31 06:42:15;;;;;;;;;;;;;;;22.15;50.69;102174.47;7283428;19;154056;-61
2022/08/31 06:44:41;;;;;;;;;;;;;;;22.10;51.36;102177.31;7282031;19;153335;-61
2022/08/31 06:47:08;;;;;;;;;;;;;;;22.11;51.10;102181.81;7288045;19;154123;-61
2022/08/31 06:49:35;;;;;;;;;;;;;;;22.10;51.07;102179.28;7279389;19;152093;-61
2022/08/31 06:52:05;;;;;;;;;;;;;;;22.12;51.16;102188.28;7283781;19;154666;-61
2022/08/31 06:54:35;;;;;;;;;;;;;;;22.13;51.04;102189.94;7278226;19;153682;-60
2022/08/31 06:57:02;;;;;;;;;;;;;;;22.10;51.08;102187.72;7280672;19;151925;-61
2022/08/31 06:59:35;;;;;;;;;;;;;;;22.09;51.17;102184.06;7276458;19;152536;-62
2022/08/31 07:02:02;;;;;;;;;;;;;;;22.11;51.21;102176.19;7281815;19;154022;-60
2022/08/31 07:04:33;;;;;;;;;;;;;;;22.11;51.24;102178.16;7271564;19;152546;-61
2022/08/31 07:07:04;;;;;;;;;;;;;;;22.09;51.57;102181.25;7282094;19;152690;-61
2022/08/31 07:09:30;;;;;;;;;;;;;;;22.11;51.32;102181.81;7285776;19;153927;-62
2022/08/31 07:11:57;;;;;;;;;;;;;;;22.09;51.41;102184.06;7282578;19;152524;-60
2022/08/31 07:14:27;;;;;;;;;;;;;;;22.06;51.58;102178.19;7280609;19;152146;-61
2022/08/31 07:16:58;;;;;;;;;;;;;;;22.09;51.40;102183.22;7283274;19;152093;-61
2022/08/31 07:19:29;;;;;;;;;;;;;;;22.11;51.51;102183.78;7276603;19;153835;-61
2022/08/31 07:21:57;;;;;;;;;;;;;;;22.08;51.68;102181.53;7281943;19;154367;-61
2022/08/31 07:24:27;;;;;;;;;;;;;;;22.10;51.82;102184.91;7281730;19;152204;-60
2022/08/31 07:27:11;;;;;;;;;;;;;;;22.10;51.75;102185.75;7283453;19;152357;-61
2022/08/31 07:29:43;;;;;;;;;;;;;;;22.15;51.48;102184.88;7276524;19;154321;-61
2022/08/31 07:32:12;;;;;;;;;;;;;;;22.12;51.86;102168.59;7290417;19;152152;-61
2022/08/31 07:34:42;;;;;;;;;;;;;;;22.14;51.63;102177.56;7273701;19;153323;-61
2022/08/31 07:42:54;;;;;;;;;;;;;;;22.14;51.57;102169.13;7281434;19;153219;-61
2022/08/31 07:45:23;;;;;;;;;;;;;;;22.15;51.68;102165.19;7280614;19;153305;-61
2022/08/31 07:47:58;;;;;;;;;;;;;;;22.17;51.62;102172.19;7279191;19;151969;-61
2022/08/31 07:50:30;;;;;;;;;;;;;;;22.16;51.88;102170.53;7274123;19;154134;-61
2022/08/31 07:52:59;;;;;;;;;;;;;;;22.16;51.84;102166.88;7288257;19;151870;-61
2022/08/31 07:55:34;;;;;;;;;;;;;;;22.16;52.14;102176.16;7279545;19;153648;-61
2022/08/31 07:58:11;;;;;;;;;;;;;;;22.14;51.80;102171.94;7278380;19;152274;-61
2022/08/31 08:00:42;;;;;;;;;;;;;;;22.16;52.19;102169.69;7276584;19;152565;-61
2022/08/31 08:03:10;;;;;;;;;;;;;;;22.15;52.05;102174.47;7278281;19;153637;-61
2022/08/31 08:05:40;;;;;;;;;;;;;;;22.19;51.85;102171.91;7275364;19;152230;-61
2022/08/31 08:08:08;;;;;;;;;;;;;;;22.14;51.96;102169.13;7278939;19;151968;-61
2022/08/31 08:10:43;;;;;;;;;;;;;;;22.17;52.44;102172.19;7276836;19;154186;-60
2022/08/31 08:13:18;;;;;;;;;;;;;;;22.15;52.43;102173.63;7276407;19;152185;-61
2022/08/31 08:15:49;;;;;;;;;;;;;;;22.19;52.42;102177.53;7292698;19;152405;-60
2022/08/31 08:18:18;;;;;;;;;;;;;;;22.14;52.07;102169.97;7286482;19;152614;-62
2022/08/31 08:20:46;;;;;;;;;;;;;;;22.17;52.46;102171.34;7283667;19;153597;-61
2022/08/31 08:23:15;;;;;;;;;;;;;;;22.16;52.56;102175.31;7286250;19;152569;-61
2022/08/31 08:25:45;;;;;;;;;;;;;;;22.18;52.81;102170.22;7285733;19;153038;-60
2022/08/31 08:28:16;;;;;;;;;;;;;;;22.18;52.66;102181.47;7285411;19;152525;-61
2022/08/31 08:31:04;;;;;;;;;;;;;;;22.25;52.56;102186.81;7283749;19;153312;-61
2022/08/31 08:33:33;;;;;;;;;;;;;;;22.21;52.16;102186.56;7287139;19;152718;-61
2022/08/31 08:36:02;;;;;;;;;;;;;;;22.18;52.34;102184.31;7280542;19;154481;-61
2022/08/31 08:38:31;;;;;;;;;;;;;;;22.19;52.60;102177.53;7291082;19;153448;-61
2022/08/31 08:40:59;;;;;;;;;;;;;;;22.23;52.43;102189.06;7282222;19;153312;-61
2022/08/31 08:43:31;;;;;;;;;;;;;;;22.21;52.66;102182.91;7284562;19;155321;-61
2022/08/31 08:46:01;;;;;;;;;;;;;;;22.19;52.54;102183.19;7284596;19;152412;-61
2022/08/31 08:48:50;;;;;;;;;;;;;;;22.22;52.30;102187.38;7284375;19;153524;-61
2022/08/31 08:51:27;;;;;;;;;;;;;;;22.27;52.48;102187.34;7282014;19;153638;-61
2022/08/31 08:53:58;;;;;;;;;;;;;;;22.24;52.28;102183.16;7284235;19;154814;-61
2022/08/31 08:56:26;;;;;;;;;;;;;;;22.23;52.82;102180.63;7282635;19;153634;-62
2022/08/31 08:58:59;;;;;;;;;;;;;;;22.28;52.28;102184.25;7280613;19;155022;-60
2022/08/31 09:01:27;;;;;;;;;;;;;;;22.26;52.71;102182.88;7289826;19;154084;-61
2022/08/31 09:03:58;;;;;;;;;;;;;;;22.24;52.71;102174.72;7278822;19;152864;-60
2022/08/31 09:06:25;;;;;;;;;;;;;;;22.27;52.84;102181.72;7282714;19;152861;-61
2022/08/31 09:09:07;;;;;;;;;;;;;;;22.26;52.83;102174.41;7285720;19;153482;-61
2022/08/31 09:11:34;;;;;;;;;;;;;;;22.29;52.83;102179.47;7283872;19;153190;-60
2022/08/31 09:14:23;;;;;;;;;;;;;;;22.32;52.19;102179.72;7284055;19;152452;-61
2022/08/31 09:17:03;;;;;;;;;;;;;;;22.30;52.32;102176.38;7285228;19;152897;-61
2022/08/31 09:19:57;;;;;;;;;;;;;;;22.37;52.75;102176.88;7279557;19;153232;-61
2022/08/31 09:22:21;;;;;;;;;;;;;;;22.37;52.44;102168.44;7284738;19;152234;-61
2022/08/31 09:24:51;;;;;;;;;;;;;;;22.37;52.78;102176.88;7288157;19;154980;-61
2022/08/31 09:27:35;;;;;;;;;;;;;;;22.37;52.79;102168.44;7281972;19;153221;-61
2022/08/31 09:30:04;;;;;;;;;;;;;;;22.39;53.13;102180.25;7280492;19;152155;-61
2022/08/31 09:32:34;;;;;;;;;;;;;;;22.38;53.17;102184.19;7284261;19;153043;-61
2022/08/31 09:35:08;;;;;;;;;;;;;;;22.37;53.06;102181.66;7279820;19;153833;-60
2022/08/31 09:37:45;;;;;;;;;;;;;;;22.39;53.19;102179.41;7286615;19;153480;-61
2022/08/31 09:40:16;;;;;;;;;;;;;;;22.38;53.28;102177.72;7283104;19;153750;-61
2022/08/31 09:43:04;;;;;;;;;;;;;;;22.38;53.31;102184.19;7285729;19;151627;-61
2022/08/31 09:45:35;;;;;;;;;;;;;;;22.38;52.95;102180.53;7282706;19;152788;-61
2022/08/31 09:48:08;;;;;;;;;;;;;;;22.39;53.29;102176.59;7290389;19;152303;-61
2022/08/31 09:50:43;;;;;;;;;;;;;;;22.41;52.69;102183.59;7276546;19;153760;-61
2022/08/31 09:56:13;;;;;;;;;;;;;;;22.44;52.88;102180.19;7282752;19;152508;-61
2022/08/31 09:58:42;;;;;;;;;;;;;;;22.44;52.56;102173.75;7283480;19;152510;-61
2022/08/31 10:01:18;;;;;;;;;;;;;;;22.44;52.65;102171.75;7277470;19;153505;-60
2022/08/31 10:03:46;;;;;;;;;;;;;;;22.45;52.74;102175.41;7281085;19;153318;-61
2022/08/31 10:06:29;;;;;;;;;;;;;;;22.45;52.52;102167.81;7279470;19;151852;-61
2022/08/31 10:09:05;;;;;;;;;;;;;;;22.47;52.48;102176.81;7290423;19;153197;-60
2022/08/31 10:11:34;;;;;;;;;;;;;;;22.47;53.15;102173.16;7284887;19;152593;-61
2022/08/31 10:14:15;;;;;;;;;;;;;;;22.47;53.03;102178.78;7282655;19;153330;-60
2022/08/31 10:16:50;;;;;;;;;;;;;;;22.50;52.78;102175.38;7284037;19;152776;-61
2022/08/31 10:19:32;;;;;;;;;;;;;;;22.50;52.61;102173.41;7279503;19;154378;-60
2022/08/31 10:22:29;;;;;;;;;;;;;;;22.50;52.68;102167.78;7284071;19;152734;-61
2022/08/31 10:25:05;;;;;;;;;;;;;;;22.52;52.66;102165.50;7282149;19;154211;-61
2022/08/31 10:27:37;;;;;;;;;;;;;;;22.52;52.77;102168.34;7283662;19;153592;-61
2022/08/31 10:30:11;;;;;;;;;;;;;;;22.53;52.37;102152.28;7279610;19;154033;-60
2022/08/31 10:32:49;;;;;;;;;;;;;;;22.57;52.56;102147.75;7292473;19;152819;-61
2022/08/31 10:35:51;;;;;;;;;;;;;;;22.58;52.88;102146.56;7279468;19;152836;-60
2022/08/31 10:38:35;;;;;;;;;;;;;;;22.57;52.72;102142.09;7284390;19;152233;-60
2022/08/31 10:41:16;;;;;;;;;;;;;;;22.57;53.54;102139.28;7280759;19;152551;-61
2022/08/31 10:44:25;;;;;;;;;;;;;;;22.60;53.14;102138.69;7281156;19;153551;-61
2022/08/31 10:47:01;;;;;;;;;;;;;;;22.62;52.71;102128.78;7279795;19;152844;-60
2022/08/31 10:49:29;;;;;;;;;;;;;;;22.60;52.77;102128.25;7277000;19;153112;-61
2022/08/31 10:52:10;;;;;;;;;;;;;;;22.60;52.86;102121.78;7283608;19;154410;-60
2022/08/31 10:54:46;;;;;;;;;;;;;;;22.60;52.80;102125.44;7281261;19;152610;-61
2022/08/31 10:57:31;;;;;;;;;;;;;;;22.59;52.93;102118.13;7288489;19;151853;-60
2022/08/31 11:00:02;;;;;;;;;;;;;;;22.59;52.96;102126.56;7280381;19;152646;-61
2022/08/31 11:02:32;;;;;;;;;;;;;;;22.59;52.77;102122.91;7276735;19;153435;-60
2022/08/31 11:05:18;;;;;;;;;;;;;;;22.61;53.18;102126.28;7275900;19;154080;-61
2022/08/31 11:07:56;;;;;;;;;;;;;;;22.61;52.54;102112.22;7280415;19;152355;-60
2022/08/31 11:10:37;;;;;;;;;;;;;;;22.61;52.56;102120.66;7279308;19;153874;-60
2022/08/31 11:13:06;;;;;;;;;;;;;;;22.61;52.62;102113.06;7280137;19;152891;-62
2022/08/31 11:15:46;;;;;;;;;;;;;;;22.66;52.32;102106.53;7281113;19;152163;-61
2022/08/31 11:18:17;;;;;;;;;;;;;;;22.69;52.68;102091.84;7282104;19;152125;-61
2022/08/31 11:20:54;;;;;;;;;;;;;;;22.73;52.94;102111.84;7285782;19;153210;-61
2022/08/31 11:23:25;;;;;;;;;;;;;;;22.75;52.51;102101.13;7281076;19;152872;-61
2022/08/31 11:25:52;;;;;;;;;;;;;;;22.76;52.55;102091.56;7278176;19;153960;-61
2022/08/31 11:28:32;;;;;;;;;;;;;;;22.75;52.73;102092.69;7279825;19;152581;-61
2022/08/31 11:31:06;;;;;;;;;;;;;;;22.75;52.25;102085.06;7279908;19;152972;-61
2022/08/31 11:33:34;;;;;;;;;;;;;;;22.72;52.35;102088.47;7280796;19;153215;-61
2022/08/31 11:36:08;;;;;;;;;;;;;;;22.73;52.47;102072.41;7277679;19;152478;-61
2022/08/31 11:38:55;;;;;;;;;;;;;;;22.73;52.30;102078.03;7280407;19;153760;-61
2022/08/31 11:41:31;;;;;;;;;;;;;;;22.72;52.12;102074.38;7279710;19;155063;-61
2022/08/31 11:44:04;;;;;;;;;;;;;;;22.74;51.88;102072.13;7287986;19;152451;-61
2022/08/31 11:46:36;;;;;;;;;;;;;;;22.79;52.01;102062.78;7279003;19;152947;-61
2022/08/31 11:49:35;;;;;;;;;;;;;;;22.76;51.92;102071.81;7279603;19;154044;-61
2022/08/31 11:52:09;;;;;;;;;;;;;;;22.76;52.18;102071.81;7287836;19;152174;-60
2022/08/31 11:54:47;;;;;;;;;;;;;;;22.76;51.90;102071.81;7285962;19;152995;-61
2022/08/31 11:57:37;;;;;;;;;;;;;;;22.76;51.97;102080.28;7289638;19;151878;-61
2022/08/31 12:00:16;;;;;;;;;;;;;;;22.77;51.68;102056.56;7284982;19;154067;-60
2022/08/31 12:02:44;;;;;;;;;;;;;;;22.77;51.57;102070.66;7283198;19;153568;-60
2022/08/31 12:05:39;;;;;;;;;;;;;;;22.79;51.83;102066.44;7279046;19;152365;-61
2022/08/31 12:08:14;;;;;;;;;;;;;;;22.80;51.80;102081.38;7293490;19;152621;-61
2022/08/31 12:10:43;;;;;;;;;;;;;;;22.79;51.71;102071.22;7283422;19;152822;-61
2022/08/31 12:13:33;;;;;;;;;;;;;;;22.79;51.92;102069.25;7286311;19;153327;-61
2022/08/31 12:16:03;;;;;;;;;;;;;;;22.79;52.00;102069.25;7283604;19;153592;-60
2022/08/31 12:18:47;;;;;;;;;;;;;;;22.79;52.08;102074.88;7286536;19;151992;-61
2022/08/31 12:24:28;;;;;;;;;;;;;;;22.79;51.81;102086.16;7285432;19;155568;-61
2022/08/31 12:27:12;;;;;;;;;;;;;;;22.79;51.95;102088.13;7288045;19;152992;-61
2022/08/31 12:29:40;;;;;;;;;;;;;;;22.79;51.95;102090.94;7289002;19;153737;-61
2022/08/31 12:32:12;;;;;;;;;;;;;;;22.78;52.16;102084.47;7288475;19;152347;-60
2022/08/31 12:34:43;;;;;;;;;;;;;;;22.79;51.66;102079.69;7279713;19;154451;-61
2022/08/31 12:37:21;;;;;;;;;;;;;;;22.79;52.44;102079.69;7283330;19;154337;-61
2022/08/31 12:40:03;;;;;;;;;;;;;;;22.80;51.93;102087.00;7278363;19;153844;-61
2022/08/31 12:42:33;;;;;;;;;;;;;;;22.79;52.12;102080.53;7288220;19;152721;-60
2022/08/31 12:45:01;;;;;;;;;;;;;;;22.81;52.01;102072.59;7282014;19;154111;-61
2022/08/31 12:47:28;;;;;;;;;;;;;;;22.80;52.23;102081.38;7286877;19;152116;-60
2022/08/31 12:50:04;;;;;;;;;;;;;;;22.80;52.01;102078.56;7282234;19;154111;-61
2022/08/31 12:52:31;;;;;;;;;;;;;;;22.79;51.93;102074.88;7293212;19;153637;-60
2022/08/31 12:55:15;;;;;;;;;;;;;;;22.81;52.16;102077.38;7283169;19;153338;-60
2022/08/31 12:57:57;;;;;;;;;;;;;;;22.81;52.00;102072.59;7285958;19;152956;-61
2022/08/31 13:00:28;;;;;;;;;;;;;;;22.81;52.07;102080.19;7283840;19;154749;-61
2022/08/31 13:03:01;;;;;;;;;;;;;;;22.82;51.92;102074.28;7282882;19;154015;-61
2022/08/31 13:05:33;;;;;;;;;;;;;;;22.81;52.10;102077.38;7278197;19;153290;-61
2022/08/31 13:08:32;;;;;;;;;;;;;;;22.82;51.98;102079.06;7284596;19;152892;-60
2022/08/31 13:11:32;;;;;;;;;;;;;;;22.82;51.95;102067.81;7281733;19;152267;-61